Time;durP1;ratioP1;P1;durP2;ratioP2;P2;SDS_P1;SDS_P2;PMS_P1;PMS_P2;Temp;Humidity;BMP_temperature;BMP_pressure;BME280_temperature;BME280_humidity;BME280_pressure;Samples;Min_cycle;Max_cycle;Signal;HPM_P1;HPM_P2
2022/04/15 00:00:27;;;;;;;0.10;0.10;;;;;;;7.85;84.64;97853.91;6285248;22;20080;-85
2022/04/15 00:02:53;;;;;;;0.10;0.10;;;;;;;7.93;84.48;97850.91;6284538;22;20027;-84
2022/04/15 00:05:37;;;;;;;0.10;0.10;;;;;;;7.74;84.01;97834.03;6285184;22;20022;-84
2022/04/15 00:08:11;;;;;;;0.57;0.57;;;;;;;7.66;84.32;97846.84;6288651;22;20064;-84
2022/04/15 00:10:39;;;;;;;0.63;0.63;;;;;;;7.52;85.69;97840.34;6285506;22;20010;-84
2022/04/15 00:13:06;;;;;;;0.10;0.10;;;;;;;7.44;86.03;97836.31;6285284;22;20446;-84
2022/04/15 00:15:32;;;;;;;0.10;0.10;;;;;;;7.27;86.25;97828.19;6284853;22;20435;-85
2022/04/15 00:17:59;;;;;;;0.00;0.00;;;;;;;7.26;86.86;97837.13;6284815;22;20354;-84
2022/04/15 00:20:28;;;;;;;3.05;2.85;;;;;;;7.15;87.83;97826.06;6284472;22;20011;-84
2022/04/15 00:22:54;;;;;;;0.10;0.10;;;;;;;7.20;87.81;97830.25;6285144;22;20361;-84
2022/04/15 00:25:21;;;;;;;0.20;0.20;;;;;;;7.19;87.80;97831.22;6284487;22;19998;-84
2022/04/15 00:27:46;;;;;;;0.10;0.10;;;;;;;7.18;88.38;97845.44;6284775;22;20011;-83
2022/04/15 00:30:13;;;;;;;0.10;0.10;;;;;;;7.13;88.85;97822.63;6286745;22;20006;-84
2022/04/15 00:32:41;;;;;;;0.10;0.10;;;;;;;7.09;88.82;97814.78;6287354;22;20420;-85
2022/04/15 00:35:07;;;;;;;0.10;0.10;;;;;;;7.07;89.75;97837.06;6286448;22;20086;-84
2022/04/15 00:37:33;;;;;;;0.10;0.10;;;;;;;7.07;89.38;97826.44;6285943;22;20520;-84
2022/04/15 00:40:01;;;;;;;0.38;0.38;;;;;;;7.10;89.29;97839.59;6286536;22;20006;-83
2022/04/15 00:42:27;;;;;;;0.10;0.10;;;;;;;7.09;89.34;97836.06;6287218;22;20009;-84
2022/04/15 00:44:57;;;;;;;0.10;0.10;;;;;;;7.08;89.70;97836.09;6286172;22;19999;-84
2022/04/15 00:47:44;;;;;;;0.10;0.10;;;;;;;7.08;90.09;97836.09;6286738;22;20013;-85
2022/04/15 00:50:09;;;;;;;0.10;0.10;;;;;;;6.96;90.35;97829.53;6311844;22;20019;-73
2022/04/15 00:52:37;;;;;;;0.10;0.10;;;;;;;6.97;91.42;97835.72;6312085;22;20018;-84
2022/04/15 00:55:04;;;;;;;0.10;0.10;;;;;;;6.88;90.92;97821.03;6286221;22;20002;-84
2022/04/15 00:57:36;;;;;;;0.10;0.10;;;;;;;6.84;91.21;97819.44;6286658;22;20003;-84
2022/04/15 01:00:05;;;;;;;0.10;0.10;;;;;;;6.82;91.46;97839.91;6286843;22;20351;-83
2022/04/15 01:02:32;;;;;;;0.10;0.10;;;;;;;6.79;91.51;97849.81;6312457;22;20002;-85
2022/04/15 01:04:58;;;;;;;0.10;0.10;;;;;;;6.65;91.15;97829.09;6286087;22;20037;-84
2022/04/15 01:07:26;;;;;;;3.33;3.03;;;;;;;6.60;93.12;97835.53;6286906;22;19999;-84
2022/04/15 01:09:52;;;;;;;0.10;0.10;;;;;;;6.60;93.07;97841.72;6286345;22;20007;-84
2022/04/15 01:12:21;;;;;;;0.10;0.10;;;;;;;6.56;93.40;97845.44;6286269;22;20354;-85
2022/04/15 01:14:48;;;;;;;0.10;0.10;;;;;;;6.51;93.24;97842.09;6286154;22;20086;-83
2022/04/15 01:17:13;;;;;;;0.10;0.10;;;;;;;6.47;93.47;97829.88;6285942;22;20455;-85
2022/04/15 01:19:39;;;;;;;0.98;0.98;;;;;;;6.33;94.57;97821.63;6285425;22;20022;-84
2022/04/15 01:22:09;;;;;;;0.13;0.13;;;;;;;6.32;94.98;97836.69;6285966;22;20473;-84
2022/04/15 01:24:38;;;;;;;1.30;1.27;;;;;;;6.29;95.50;97828.84;6285530;22;20452;-83
2022/04/15 01:27:04;;;;;;;0.10;0.10;;;;;;;6.31;95.50;97844.69;6286428;22;20010;-83
2022/04/15 01:29:37;;;;;;;0.10;0.10;;;;;;;6.26;95.98;97838.72;6285350;22;20014;-83
2022/04/15 01:32:04;;;;;;;0.10;0.10;;;;;;;6.23;95.87;97838.84;6285788;22;20442;-83
2022/04/15 01:34:30;;;;;;;1.02;1.00;;;;;;;6.10;96.21;97813.69;6285329;22;20453;-84
2022/04/15 01:36:56;;;;;;;0.10;0.10;;;;;;;6.11;96.48;97828.69;6285979;22;20078;-84
2022/04/15 01:39:22;;;;;;;0.25;0.25;;;;;;;6.15;96.03;97847.13;6285864;22;20461;-84
2022/04/15 01:41:47;;;;;;;0.10;0.10;;;;;;;6.05;95.59;97831.59;6286211;22;20068;-84
2022/04/15 01:44:15;;;;;;;0.10;0.10;;;;;;;5.94;95.52;97824.91;6285780;22;20003;-83
2022/04/15 01:46:44;;;;;;;0.10;0.10;;;;;;;5.92;97.28;97828.56;6286158;22;20041;-83
2022/04/15 01:49:26;;;;;;;;;;;;;;;;;;;;;
2022/04/15 01:51:52;;;;;;;0.13;0.13;;;;;;;5.94;96.90;97824.91;6314600;22;20085;-84
2022/04/15 01:54:17;;;;;;;0.10;0.10;;;;;;;5.89;97.92;97826.03;6285029;22;21954;-84
2022/04/15 01:56:43;;;;;;;0.10;0.10;;;;;;;5.85;97.94;97817.31;6285381;22;20442;-84
2022/04/15 01:59:09;;;;;;;0.10;0.10;;;;;;;5.76;98.59;97817.63;6311246;22;19999;-83
2022/04/15 02:01:56;;;;;;;;;;;;;;;;;;;;;
2022/04/15 02:05:13;;;;;;;0.15;0.15;;;;;;;5.76;99.04;97836.22;6313109;22;20070;-83
2022/04/15 02:08:38;;;;;;;;;;;;;;;;;;;;;
2022/04/15 02:14:47;;;;;;;0.10;0.10;;;;;;;5.48;100.00;97795.72;6183648;23;20020;-83
2022/04/15 02:17:13;;;;;;;0.98;0.98;;;;;;;5.51;100.00;97792.97;6171175;22;20550;-83
2022/04/15 02:19:38;;;;;;;0.10;0.10;;;;;;;5.50;100.00;97799.22;6285436;22;20032;-83
2022/04/15 02:22:04;;;;;;;0.10;0.10;;;;;;;5.66;100.00;97808.28;6284587;22;20011;-84
2022/04/15 02:24:29;;;;;;;0.10;0.10;;;;;;;5.59;100.00;97822.75;6285254;22;20018;-84
2022/04/15 02:26:55;;;;;;;0.10;0.10;;;;;;;5.61;100.00;97818.22;6285357;22;20007;-84
2022/04/15 02:29:21;;;;;;;0.10;0.10;;;;;;;5.65;100.00;97827.81;6285512;22;20010;-83
2022/04/15 02:31:46;;;;;;;0.10;0.10;;;;;;;5.63;100.00;97824.31;6285338;22;20067;-83
2022/04/15 02:34:12;;;;;;;0.10;0.10;;;;;;;5.58;100.00;97821.00;6285217;22;20090;-83
2022/04/15 02:36:37;;;;;;;0.55;0.52;;;;;;;5.70;100.00;97824.97;6311453;22;20469;-83
2022/04/15 02:39:05;;;;;;;0.35;0.35;;;;;;;5.61;100.00;97818.22;6312222;22;20006;-83
2022/04/15 02:41:30;;;;;;;0.20;0.20;;;;;;;5.58;100.00;97823.66;6286068;22;20037;-83
2022/04/15 02:43:56;;;;;;;0.10;0.10;;;;;;;5.58;100.00;97813.03;6285401;22;20007;-82
2022/04/15 02:46:21;;;;;;;0.10;0.10;;;;;;;5.58;100.00;97818.34;6311998;22;20023;-83
2022/04/15 02:48:47;;;;;;;0.10;0.10;;;;;;;5.51;100.00;97819.47;6285116;22;20308;-82
2022/04/15 02:51:17;;;;;;;0.13;0.13;;;;;;;5.30;100.00;97810.56;6283162;22;20002;-83
2022/04/15 02:53:43;;;;;;;0.10;0.10;;;;;;;5.28;100.00;97811.53;6311040;22;20392;-85
2022/04/15 02:56:08;;;;;;;0.20;0.20;;;;;;;5.17;100.00;97800.47;6309556;22;19999;-83
2022/04/15 02:58:34;;;;;;;0.10;0.10;;;;;;;5.25;100.00;97827.56;6283232;22;20013;-84
2022/04/15 03:01:00;;;;;;;0.10;0.10;;;;;;;5.19;100.00;97826.00;6284458;22;20064;-84
2022/04/15 03:03:27;;;;;;;0.10;0.10;;;;;;;5.08;100.00;97814.91;6284126;22;20006;-83
2022/04/15 03:05:53;;;;;;;0.10;0.10;;;;;;;5.06;100.00;97811.44;6284333;22;20029;-82
2022/04/15 03:08:18;;;;;;;0.10;0.10;;;;;;;5.13;100.00;97823.56;6283298;22;19999;-85
2022/04/15 03:10:45;;;;;;;0.90;0.90;;;;;;;4.81;100.00;97778.78;6283773;22;20010;-84
2022/04/15 03:13:11;;;;;;;26.40;13.35;;;;;;;4.89;100.00;97797.94;6290987;22;20033;-84
2022/04/15 03:15:37;;;;;;;0.10;0.10;;;;;;;4.94;100.00;97809.22;6283445;22;20067;-85
2022/04/15 03:18:03;;;;;;;0.10;0.10;;;;;;;4.91;100.00;97823.47;6283442;22;20412;-84
2022/04/15 03:20:29;;;;;;;3.30;3.00;;;;;;;4.88;100.00;97828.00;6283774;22;20010;-84
2022/04/15 03:22:54;;;;;;;0.10;0.10;;;;;;;4.82;100.00;97809.66;6283808;22;20011;-84
2022/04/15 03:25:20;;;;;;;3.03;1.65;;;;;;;4.87;100.00;97821.84;6284665;22;20003;-84
2022/04/15 03:27:46;;;;;;;0.85;0.85;;;;;;;4.89;100.00;97827.09;6284046;22;20015;-84
2022/04/15 03:30:13;;;;;;;0.13;0.13;;;;;;;4.88;100.00;97828.88;6283868;22;20014;-84
2022/04/15 03:32:47;;;;;;;1.08;1.08;;;;;;;4.93;100.00;97836.66;6309646;22;20348;-84
2022/04/15 03:35:13;;;;;;;0.20;0.20;;;;;;;4.96;100.00;97830.38;6283652;22;20419;-85
2022/04/15 03:37:38;;;;;;;0.22;0.22;;;;;;;4.89;100.00;97813.84;6283541;22;20023;-84
2022/04/15 03:40:05;;;;;;;0.20;0.20;;;;;;;4.96;100.00;97823.28;6283839;22;20002;-83
2022/04/15 03:42:30;;;;;;;0.20;0.20;;;;;;;4.99;100.00;97830.25;6308837;22;20085;-81
2022/04/15 03:44:56;;;;;;;0.10;0.10;;;;;;;4.87;100.00;97819.19;6283855;22;19999;-82
2022/04/15 03:47:22;;;;;;;0.10;0.10;;;;;;;4.98;100.00;97831.19;6283689;22;20003;-85
2022/04/15 03:49:51;;;;;;;0.20;0.20;;;;;;;4.89;100.00;97814.69;6228640;22;1403108;-84
2022/04/15 03:52:16;;;;;;;0.20;0.20;;;;;;;5.02;100.00;97819.53;6291809;22;20040;-85
2022/04/15 03:54:45;;;;;;;0.13;0.13;;;;;;;5.07;100.00;97823.78;6285258;22;20350;-82
2022/04/15 03:57:10;;;;;;;0.20;0.20;;;;;;;5.14;100.00;97819.97;6286050;22;20003;-83
2022/04/15 03:59:36;;;;;;;0.22;0.22;;;;;;;5.25;100.00;97839.03;6285628;22;20057;-83
2022/04/15 04:02:02;;;;;;;0.75;0.57;;;;;;;5.34;100.00;97833.41;6310758;22;20010;-84
2022/04/15 04:04:28;;;;;;;0.90;0.90;;;;;;;5.14;100.00;97792.59;6286767;22;19999;-85
2022/04/15 04:06:54;;;;;;;0.17;0.17;;;;;;;5.29;100.00;97815.94;6286725;22;20086;-84
2022/04/15 04:09:19;;;;;;;0.47;0.47;;;;;;;5.37;100.00;97813.84;6286801;22;20084;-85
2022/04/15 04:11:47;;;;;;;1.05;1.02;;;;;;;5.49;100.00;97821.34;6287617;22;20006;-85
2022/04/15 04:14:13;;;;;;;1.40;1.30;;;;;;;5.53;100.00;97796.44;6286855;22;20096;-85
2022/04/15 04:16:38;;;;;;;0.38;0.38;;;;;;;5.68;100.00;97814.44;6286526;22;20007;-84
2022/04/15 04:19:04;;;;;;;0.10;0.10;;;;;;;5.67;99.49;97818.00;6286552;22;20013;-83
2022/04/15 04:21:33;;;;;;;0.75;0.57;;;;;;;5.83;99.25;97824.44;6287342;22;19998;-83
2022/04/15 04:23:59;;;;;;;0.47;0.47;;;;;;;5.89;98.41;97831.34;6287327;22;20465;-84
2022/04/15 04:26:24;;;;;;;0.15;0.15;;;;;;;5.97;98.10;97838.06;6312726;22;19995;-85
2022/04/15 04:28:50;;;;;;;1.10;0.68;;;;;;;5.97;96.87;97830.09;6286885;22;20009;-85
2022/04/15 04:31:17;;;;;;;3.85;2.45;;;;;;;6.03;96.53;97847.56;6286479;22;20022;-83
2022/04/15 04:33:42;;;;;;;0.20;0.20;;;;;;;6.10;94.57;97848.22;6287074;22;20006;-83
2022/04/15 04:36:08;;;;;;;0.75;0.55;;;;;;;6.10;94.47;97850.88;6286947;22;19999;-86
2022/04/15 04:38:34;;;;;;;1.08;1.05;;;;;;;6.06;93.97;97849.28;6313588;22;20351;-83
2022/04/15 04:40:59;;;;;;;2.97;1.50;;;;;;;6.01;95.19;97838.81;6286690;22;20003;-83
2022/04/15 04:43:25;;;;;;;6.60;6.07;;;;;;;6.21;94.87;97864.59;6312295;22;20026;-82
2022/04/15 04:45:51;;;;;;;0.38;0.38;;;;;;;6.30;93.48;97841.19;6286784;22;20033;-83
2022/04/15 04:48:16;;;;;;;0.68;0.68;;;;;;;6.31;94.92;97861.50;6285521;22;20041;-83
2022/04/15 04:50:42;;;;;;;0.30;0.30;;;;;;;6.54;93.65;97848.16;6285940;22;20465;-83
2022/04/15 04:53:08;;;;;;;0.30;0.30;;;;;;;6.76;92.39;97840.16;6312070;22;20003;-83
2022/04/15 04:55:33;;;;;;;4.18;2.60;;;;;;;7.54;86.61;97834.94;6286418;22;20007;-83
2022/04/15 04:57:59;;;;;;;1.58;1.48;;;;;;;8.24;81.82;97860.97;6286575;22;20007;-83
2022/04/15 05:00:24;;;;;;;0.05;0.05;;;;;;;8.47;79.77;97861.63;6286002;22;20006;-82
2022/04/15 05:02:50;;;;;;;0.10;0.10;;;;;;;9.00;77.28;97848.28;6311418;22;20041;-83
2022/04/15 05:05:16;;;;;;;1.75;1.65;;;;;;;9.00;75.84;97864.31;6285920;22;19995;-84
2022/04/15 05:07:41;;;;;;;0.00;0.00;;;;;;;9.42;74.28;97858.56;6311731;22;20433;-85
2022/04/15 05:10:08;;;;;;;3.00;2.08;;;;;;;9.51;73.59;97860.72;6286527;22;20006;-84
2022/04/15 05:12:33;;;;;;;0.22;0.22;;;;;;;9.74;71.67;97835.47;6260793;22;20033;-85
2022/04/15 05:14:59;;;;;;;1.13;0.77;;;;;;;10.10;70.37;97832.59;6285482;22;20003;-83
2022/04/15 05:20:52;;;;;;;2.67;0.75;;;;;;;11.01;64.95;97819.34;6333757;22;20018;-83
2022/04/15 05:23:26;;;;;;;0.08;0.08;;;;;;;11.42;63.28;97834.66;6319969;22;20012;-83
2022/04/15 05:25:55;;;;;;;1.10;1.00;;;;;;;11.07;62.65;97795.75;6219422;23;20000;-84
2022/04/15 05:28:20;;;;;;;6.38;1.85;;;;;;;11.10;63.05;97808.09;6218146;23;20054;-83
2022/04/15 05:30:46;;;;;;;0.00;0.00;;;;;;;12.24;60.43;97834.03;6218607;23;20000;-83
2022/04/15 05:33:11;;;;;;;0.32;0.32;;;;;;;13.63;55.28;97808.47;6218049;23;20008;-85
2022/04/15 05:35:37;;;;;;;3.85;3.55;;;;;;;15.12;50.82;97798.41;6219277;23;20003;-85
2022/04/15 05:38:03;;;;;;;0.00;0.00;;;;;;;16.21;48.81;97800.59;6219367;23;20011;-85
2022/04/15 05:40:28;;;;;;;0.30;0.30;;;;;;;17.23;45.02;97784.84;6218496;23;20458;-85
2022/04/15 05:42:54;;;;;;;0.10;0.10;;;;;;;18.25;43.33;97790.34;6193238;23;20004;-85
2022/04/15 05:45:21;;;;;;;1.17;1.08;;;;;;;19.19;41.07;97757.34;6193725;23;20009;-85
2022/04/15 05:47:47;;;;;;;0.55;0.55;;;;;;;20.01;38.73;97756.63;6192658;23;20512;-84
2022/04/15 05:50:13;;;;;;;0.10;0.10;;;;;;;20.02;38.09;97779.22;6192692;23;20016;-86
2022/04/15 05:52:38;;;;;;;0.28;0.28;;;;;;;19.90;38.51;97781.22;6218049;23;20120;-84
2022/04/15 05:55:04;;;;;;;0.63;0.63;;;;;;;20.52;37.95;97757.97;6220637;23;20008;-85
2022/04/15 05:57:30;;;;;;;1.13;1.02;;;;;;;20.60;37.20;97768.97;6219917;22;20124;-78
2022/04/15 05:59:55;;;;;;;0.03;0.03;;;;;;;20.86;36.80;97772.66;6227755;22;20486;-81
2022/04/15 06:02:22;;;;;;;0.35;0.35;;;;;;;21.53;36.21;97754.97;6253119;22;20006;-82
2022/04/15 06:04:56;;;;;;;0.35;0.35;;;;;;;22.50;34.04;97722.88;6231694;22;20036;-81
2022/04/15 06:07:21;;;;;;;0.00;0.00;;;;;;;22.85;33.22;97747.22;6232344;22;20014;-79
2022/04/15 06:09:47;;;;;;;1.88;1.75;;;;;;;22.82;33.49;97755.75;6228652;22;20104;-74
2022/04/15 06:12:12;;;;;;;0.20;0.20;;;;;;;22.36;34.13;97748.91;6250753;22;20067;-77
2022/04/15 06:14:39;;;;;;;0.40;0.40;;;;;;;23.44;32.72;97754.31;6226296;22;20013;-75
2022/04/15 06:17:05;;;;;;;1.65;1.52;;;;;;;24.18;31.45;97734.09;6250011;22;20017;-75
2022/04/15 06:19:31;;;;;;;0.10;0.10;;;;;;;24.27;31.77;97744.84;6250535;22;20361;-72
2022/04/15 06:21:59;;;;;;;1.42;1.33;;;;;;;24.26;31.33;97747.78;6251694;22;20002;-74
2022/04/15 06:24:24;;;;;;;0.13;0.13;;;;;;;24.72;30.40;97740.56;6252954;22;20036;-74
2022/04/15 06:26:51;;;;;;;3.10;0.45;;;;;;;23.68;31.75;97737.09;6251695;22;20006;-73
2022/04/15 06:29:17;;;;;;;0.10;0.10;;;;;;;24.57;30.78;97739.63;6228372;22;20009;-72
2022/04/15 06:31:42;;;;;;;0.80;0.80;;;;;;;25.08;30.26;97747.22;6252280;22;20078;-73
2022/04/15 06:34:08;;;;;;;0.30;0.30;;;;;;;24.57;30.86;97734.16;6227424;22;20441;-74
2022/04/15 06:36:34;;;;;;;0.98;0.93;;;;;;;24.36;31.01;97737.50;6227187;22;20091;-73
2022/04/15 06:38:59;;;;;;;9.13;0.52;;;;;;;24.14;30.96;97738.25;6253118;22;20092;-73
2022/04/15 06:41:25;;;;;;;2.17;2.03;;;;;;;23.75;31.68;97743.56;6227149;23;20067;-73
2022/04/15 06:43:50;;;;;;;0.20;0.20;;;;;;;24.02;32.09;97745.94;6226681;23;20088;-73
2022/04/15 06:46:16;;;;;;;1.10;1.00;;;;;;;24.04;31.43;97741.13;6252282;22;20008;-73
2022/04/15 06:48:42;;;;;;;0.52;0.52;;;;;;;23.41;32.09;97732.00;6281713;22;20034;-75
2022/04/15 06:51:07;;;;;;;1.88;1.77;;;;;;;24.42;30.58;97742.25;6252866;22;19998;-73
2022/04/15 06:53:34;;;;;;;0.65;0.65;;;;;;;24.39;30.22;97734.41;6278260;22;20435;-73
2022/04/15 06:56:00;;;;;;;2.08;1.95;;;;;;;24.94;29.43;97734.34;6252951;22;20078;-73
2022/04/15 06:58:26;;;;;;;0.03;0.03;;;;;;;23.76;31.26;97728.88;6252024;22;20094;-73
2022/04/15 07:00:52;;;;;;;0.52;0.47;;;;;;;23.88;31.04;97732.97;6277965;22;20101;-73
2022/04/15 07:03:18;;;;;;;0.10;0.10;;;;;;;23.68;31.17;97728.91;6278776;22;20006;-73
2022/04/15 07:05:46;;;;;;;0.25;0.25;;;;;;;23.16;31.85;97725.63;6253244;22;20003;-73
2022/04/15 07:08:12;;;;;;;1.05;0.65;;;;;;;24.19;30.38;97720.28;6279254;22;20006;-75
2022/04/15 07:10:38;;;;;;;0.28;0.28;;;;;;;24.15;30.21;97718.91;6252890;22;20015;-74
2022/04/15 07:13:04;;;;;;;0.85;0.85;;;;;;;24.50;30.15;97708.53;6252331;22;20011;-74
2022/04/15 07:15:30;;;;;;;1.75;1.65;;;;;;;25.84;27.43;97719.75;6277860;22;20003;-74
2022/04/15 07:18:00;;;;;;;0.00;0.00;;;;;;;25.92;27.20;97707.88;6277779;22;20082;-74
2022/04/15 07:20:25;;;;;;;1.20;0.38;;;;;;;25.87;27.29;97713.06;6279065;22;20010;-75
2022/04/15 07:22:58;;;;;;;0.00;0.00;;;;;;;26.89;26.42;97696.59;6252531;22;20007;-74
2022/04/15 07:25:25;;;;;;;0.25;0.25;;;;;;;25.85;27.85;97709.66;6278569;22;19999;-73
2022/04/15 07:27:51;;;;;;;0.75;0.75;;;;;;;25.64;27.31;97704.03;6252867;22;20007;-74
2022/04/15 07:30:17;;;;;;;0.75;0.35;;;;;;;25.49;27.88;97703.16;6253150;22;20518;-73
2022/04/15 07:32:44;;;;;;;0.03;0.03;;;;;;;26.36;26.82;97696.97;6278855;22;20050;-74
2022/04/15 07:35:09;;;;;;;0.20;0.20;;;;;;;27.07;26.10;97687.09;6252735;22;20527;-74
2022/04/15 07:37:35;;;;;;;0.17;0.17;;;;;;;26.81;26.15;97687.63;6277872;22;20041;-74
2022/04/15 07:40:00;;;;;;;0.00;0.00;;;;;;;27.70;25.13;97691.72;6278365;22;19999;-72
2022/04/15 07:42:26;;;;;;;1.50;0.38;;;;;;;28.21;24.15;97676.66;6278003;22;20003;-73
2022/04/15 07:44:52;;;;;;;0.00;0.00;;;;;;;29.47;23.00;97674.19;6278168;22;20010;-73
2022/04/15 07:47:17;;;;;;;0.38;0.38;;;;;;;29.01;23.56;97670.47;6277941;22;20003;-73
2022/04/15 07:49:43;;;;;;;0.45;0.30;;;;;;;29.64;23.03;97679.31;6277325;22;20019;-73
2022/04/15 07:52:08;;;;;;;0.00;0.00;;;;;;;30.32;22.43;97670.56;6303314;22;20089;-73
2022/04/15 07:54:34;;;;;;;0.30;0.30;;;;;;;29.39;22.79;97666.13;6277504;22;20007;-73
2022/04/15 07:57:00;;;;;;;0.90;0.40;;;;;;;28.32;23.66;97654.09;6277569;22;20004;-73
2022/04/15 07:59:27;;;;;;;7.63;7.05;;;;;;;29.12;23.58;97669.88;6251825;22;20014;-74
2022/04/15 08:01:53;;;;;;;0.00;0.00;;;;;;;30.66;21.97;97665.78;6277356;22;19999;-73
2022/04/15 08:04:18;;;;;;;0.03;0.03;;;;;;;30.08;22.50;97665.72;6251877;22;20006;-73
2022/04/15 08:06:44;;;;;;;0.10;0.10;;;;;;;29.12;22.70;97656.09;6277561;22;20010;-74
2022/04/15 08:09:10;;;;;;;0.57;0.52;;;;;;;28.08;23.36;97651.84;6277471;22;20025;-74
2022/04/15 08:11:35;;;;;;;0.00;0.00;;;;;;;28.37;23.02;97647.97;6277407;22;20023;-73
2022/04/15 08:14:01;;;;;;;1.45;1.00;;;;;;;29.44;22.10;97648.97;6277458;22;20003;-74
2022/04/15 08:16:27;;;;;;;0.00;0.00;;;;;;;30.29;21.03;97639.75;6251751;22;20003;-74
2022/04/15 08:18:55;;;;;;;0.00;0.00;;;;;;;30.71;20.64;97630.91;6277564;22;20409;-74
2022/04/15 08:21:21;;;;;;;0.00;0.00;;;;;;;30.72;20.51;97637.28;6277756;22;20047;-74
2022/04/15 08:23:47;;;;;;;0.00;0.00;;;;;;;31.14;19.97;97620.91;6277405;22;19999;-73
2022/04/15 08:26:12;;;;;;;0.00;0.00;;;;;;;31.19;19.86;97628.56;6252039;22;20023;-74
2022/04/15 08:28:38;;;;;;;0.20;0.20;;;;;;;31.84;19.79;97623.59;6277456;22;20000;-74
2022/04/15 08:31:06;;;;;;;0.20;0.20;;;;;;;31.06;19.76;97606.53;6251674;22;20022;-74
2022/04/15 08:33:31;;;;;;;0.00;0.00;;;;;;;32.09;20.42;97619.72;6277570;22;20003;-73
2022/04/15 08:35:57;;;;;;;0.50;0.32;;;;;;;31.71;20.00;97620.94;6277219;22;20003;-72
2022/04/15 08:38:22;;;;;;;0.40;0.40;;;;;;;30.96;20.88;97625.50;6277638;22;20006;-73
2022/04/15 08:40:50;;;;;;;0.03;0.03;;;;;;;31.68;20.66;97622.25;6277329;22;20000;-73
2022/04/15 08:43:16;;;;;;;0.00;0.00;;;;;;;32.37;20.89;97618.34;6304790;22;20435;-73
2022/04/15 08:45:42;;;;;;;0.00;0.00;;;;;;;32.30;20.67;97610.13;6277843;22;20056;-73
2022/04/15 08:48:08;;;;;;;0.00;0.00;;;;;;;32.10;20.68;97610.34;6277954;22;20030;-73
2022/04/15 08:50:34;;;;;;;0.20;0.20;;;;;;;34.15;19.25;97597.97;6284091;22;20003;-74
2022/04/15 08:53:01;;;;;;;0.05;0.05;;;;;;;34.50;18.50;97595.97;6310643;22;20349;-74
2022/04/15 08:55:29;;;;;;;0.00;0.00;;;;;;;32.53;20.12;97593.63;6310155;22;20006;-74
2022/04/15 08:57:56;;;;;;;0.35;0.35;;;;;;;31.95;20.13;97578.53;6284012;22;20060;-73
2022/04/15 09:00:23;;;;;;;0.40;0.28;;;;;;;31.66;20.43;97580.94;6309885;22;20024;-73
2022/04/15 09:02:53;;;;;;;0.17;0.17;;;;;;;33.37;19.35;97589.94;6284270;22;20011;-73
2022/04/15 09:05:23;;;;;;;0.63;0.60;;;;;;;34.34;18.57;97574.50;6284472;22;20026;-73
2022/04/15 09:07:49;;;;;;;0.03;0.03;;;;;;;35.76;16.72;97562.25;6284568;22;19998;-73
2022/04/15 09:10:18;;;;;;;0.05;0.05;;;;;;;35.23;17.84;97564.66;6284056;22;20076;-73
2022/04/15 09:12:46;;;;;;;0.00;0.00;;;;;;;33.87;18.12;97556.22;6284985;22;20007;-73
2022/04/15 09:15:13;;;;;;;0.00;0.00;;;;;;;34.29;17.92;97550.25;6284420;22;20456;-73
2022/04/15 09:17:41;;;;;;;0.45;0.45;;;;;;;34.52;17.41;97537.34;6284533;22;20021;-74
2022/04/15 09:20:09;;;;;;;0.00;0.00;;;;;;;36.20;15.90;97534.50;6310209;22;20003;-74
2022/04/15 09:22:36;;;;;;;0.00;0.00;;;;;;;35.76;15.82;97534.41;6310605;22;20136;-74
2022/04/15 09:25:03;;;;;;;0.00;0.00;;;;;;;35.40;15.81;97525.72;6309841;22;19995;-73
2022/04/15 09:27:29;;;;;;;0.00;0.00;;;;;;;36.93;14.48;97529.28;6284252;22;20041;-73
2022/04/15 09:29:54;;;;;;;0.00;0.00;;;;;;;36.46;15.82;97519.78;6310347;22;20003;-73
2022/04/15 09:32:22;;;;;;;0.22;0.22;;;;;;;37.07;14.35;97514.94;6309347;22;20358;-75
2022/04/15 09:34:58;;;;;;;1.35;0.65;;;;;;;33.94;16.25;97493.03;6283964;22;20453;-75
2022/04/15 09:37:26;;;;;;;0.47;0.47;;;;;;;33.17;16.46;97498.72;6283916;22;20034;-74
2022/04/15 09:40:18;;;;;;;0.28;0.28;;;;;;;33.38;16.42;97496.44;6283870;22;20021;-74
2022/04/15 09:42:45;;;;;;;;;;;;;;;34.06;15.71;97491.06;6310630;22;20372;-74
2022/04/15 09:45:11;;;;;;;0.00;0.00;;;;;;;34.44;15.73;97480.25;6284027;22;19909;-74
2022/04/15 09:47:37;;;;;;;0.10;0.10;;;;;;;35.10;14.95;97473.19;6309757;22;20056;-74
2022/04/15 09:50:03;;;;;;;0.40;0.40;;;;;;;35.33;15.62;97475.78;6283662;22;20015;-74
2022/04/15 09:52:29;;;;;;;0.10;0.10;;;;;;;35.24;14.71;97474.53;6309914;22;20006;-74
2022/04/15 09:54:56;;;;;;;1.30;1.20;;;;;;;34.97;14.52;97463.19;6309610;22;20086;-73
2022/04/15 09:57:24;;;;;;;0.00;0.00;;;;;;;35.45;15.22;97467.34;6309734;22;20007;-74
2022/04/15 09:59:52;;;;;;;0.32;0.22;;;;;;;35.22;14.61;97452.53;6283946;22;19999;-74
2022/04/15 10:02:19;;;;;;;2.22;2.05;;;;;;;34.48;15.60;97459.22;6283371;22;20144;-74
2022/04/15 10:04:45;;;;;;;0.00;0.00;;;;;;;35.05;14.81;97445.22;6309648;22;20132;-73
2022/04/15 10:07:11;;;;;;;1.02;1.00;;;;;;;34.28;15.26;97447.69;6283775;22;20446;-74
2022/04/15 10:09:42;;;;;;;0.73;0.73;;;;;;;33.58;15.58;97444.19;6337081;22;20007;-74
2022/04/15 10:12:07;;;;;;;1.05;0.40;;;;;;;33.47;15.61;97433.97;6283866;22;20003;-74
2022/04/15 10:14:52;;;;;;;0.00;0.00;;;;;;;35.04;14.61;97438.00;6283768;22;20014;-75
2022/04/15 10:17:20;;;;;;;0.00;0.00;;;;;;;36.62;13.84;97429.66;6283398;22;20059;-74
2022/04/15 10:19:46;;;;;;;0.45;0.45;;;;;;;37.90;13.38;97434.06;6283686;22;20015;-74
2022/04/15 10:22:12;;;;;;;0.00;0.00;;;;;;;38.58;12.91;97429.31;6309929;22;20006;-73
2022/04/15 10:24:38;;;;;;;0.00;0.00;;;;;;;38.63;12.72;97420.94;6283419;22;20010;-73
2022/04/15 10:27:47;;;;;;;0.00;0.00;;;;;;;37.63;13.16;97376.63;6309510;22;20007;-74
2022/04/15 10:30:19;;;;;;;0.00;0.00;;;;;;;37.19;12.91;97409.56;6336259;22;20009;-74
2022/04/15 10:32:55;;;;;;;0.00;0.00;;;;;;;36.27;13.58;97405.00;6309560;22;20355;-75
2022/04/15 10:35:42;;;;;;;0.00;0.00;;;;;;;36.38;13.74;97398.44;6283562;22;20003;-74
2022/04/15 10:38:12;;;;;;;0.10;0.10;;;;;;;37.80;12.79;97394.03;6308455;22;20061;-73
2022/04/15 10:40:42;;;;;;;0.00;0.00;;;;;;;38.60;12.48;97404.72;6283227;22;20007;-74
2022/04/15 10:43:21;;;;;;;0.17;0.17;;;;;;;38.07;12.53;97405.09;6283539;22;20007;-74
2022/04/15 10:45:47;;;;;;;0.32;0.10;;;;;;;37.09;13.32;97393.56;6283015;22;20091;-75
2022/04/15 10:48:12;;;;;;;0.22;0.22;;;;;;;38.31;12.69;97393.16;6283400;22;20003;-75
2022/04/15 10:50:40;;;;;;;1.73;0.47;;;;;;;37.03;13.19;97391.00;6283208;22;20010;-74
2022/04/15 10:53:34;;;;;;;1.00;0.63;;;;;;;33.54;14.81;97374.47;6308852;22;20350;-74
2022/04/15 10:56:08;;;;;;;0.00;0.00;;;;;;;32.88;15.37;97374.00;6309950;22;20070;-73
2022/04/15 11:02:02;;;;;;;0.08;0.08;;;;;;;35.96;14.17;97382.59;6210865;23;20008;-75
2022/04/15 11:04:35;;;;;;;0.00;0.00;;;;;;;36.11;13.62;97366.09;6268459;22;20446;-75
2022/04/15 11:07:24;;;;;;;0.10;0.10;;;;;;;35.39;13.51;97363.44;6309043;22;20474;-73
2022/04/15 11:09:49;;;;;;;0.00;0.00;;;;;;;36.25;13.51;97367.34;6283250;22;20003;-74
2022/04/15 11:12:48;;;;;;;0.30;0.30;;;;;;;37.57;12.78;97361.81;6309162;22;20060;-75
2022/04/15 11:15:15;;;;;;;1.17;0.35;;;;;;;35.44;13.99;97363.50;6308478;22;20010;-73
2022/04/15 11:17:52;;;;;;;0.00;0.00;;;;;;;37.05;13.17;97355.31;6283865;22;20402;-75
2022/04/15 11:20:18;;;;;;;0.00;0.00;;;;;;;37.57;12.77;97361.81;6283821;22;20002;-73
2022/04/15 11:22:44;;;;;;;0.00;0.00;;;;;;;38.30;12.04;97362.69;6283199;22;20052;-74
2022/04/15 11:25:11;;;;;;;0.13;0.13;;;;;;;38.01;12.09;97358.66;6283157;22;20009;-75
2022/04/15 11:27:39;;;;;;;0.22;0.22;;;;;;;35.09;13.63;97346.31;6283271;22;20006;-75
2022/04/15 11:30:16;;;;;;;0.70;0.70;;;;;;;35.43;13.42;97349.88;6283347;22;20075;-75
2022/04/15 11:32:46;;;;;;;0.15;0.15;;;;;;;34.20;14.34;97337.84;6309241;22;20446;-73
2022/04/15 11:35:11;;;;;;;0.13;0.13;;;;;;;36.31;13.20;97335.66;6283127;22;20079;-73
2022/04/15 11:37:38;;;;;;;0.00;0.00;;;;;;;37.28;12.76;97341.81;6283068;22;20442;-74
2022/04/15 11:40:05;;;;;;;0.00;0.00;;;;;;;36.92;13.11;97325.88;6308753;22;20564;-73
2022/04/15 11:42:32;;;;;;;0.20;0.20;;;;;;;36.48;13.10;97321.59;6282966;22;20052;-72
2022/04/15 11:44:57;;;;;;;0.00;0.00;;;;;;;37.28;12.69;97325.06;6282779;22;20385;-72
2022/04/15 11:47:26;;;;;;;27.15;4.88;;;;;;;38.02;12.63;97324.03;6283398;22;20009;-72
2022/04/15 11:49:52;;;;;;;7.15;3.15;;;;;;;37.73;12.92;97321.66;6283511;22;20370;-73
2022/04/15 11:52:26;;;;;;;8.80;3.20;;;;;;;36.03;13.41;97313.59;6283133;22;20007;-72